sensor_id;sensor_type;location;lat;lon;timestamp;temperature;humidity
18268;DHT22;9260;49.998;19.880;2024-03-25T00:03:12;-1.60;1.00
18268;DHT22;9260;49.998;19.880;2024-03-25T00:13:15;-1.70;1.00
18268;DHT22;9260;49.998;19.880;2024-03-25T00:23:17;-1.60;1.00
18268;DHT22;9260;49.998;19.880;2024-03-25T00:33:21;-1.40;1.00
18268;DHT22;9260;49.998;19.880;2024-03-25T00:43:24;-1.40;1.00
18268;DHT22;9260;49.998;19.880;2024-03-25T00:53:28;-1.80;1.00
18268;DHT22;9260;49.998;19.880;2024-03-25T01:03:30;-1.60;1.00
18268;DHT22;9260;49.998;19.880;2024-03-25T01:13:33;-1.10;1.00
18268;DHT22;9260;49.998;19.880;2024-03-25T01:23:36;0.20;1.00
18268;DHT22;9260;49.998;19.880;2024-03-25T01:33:39;0.00;1.00
18268;DHT22;9260;49.998;19.880;2024-03-25T01:43:41;0.30;1.00
18268;DHT22;9260;49.998;19.880;2024-03-25T01:53:45;0.30;1.00
18268;DHT22;9260;49.998;19.880;2024-03-25T02:03:48;0.60;1.00
18268;DHT22;9260;49.998;19.880;2024-03-25T02:13:51;0.20;1.00
18268;DHT22;9260;49.998;19.880;2024-03-25T02:23:54;-0.30;1.00
18268;DHT22;9260;49.998;19.880;2024-03-25T02:34:00;-0.10;1.00
18268;DHT22;9260;49.998;19.880;2024-03-25T02:44:02;0.40;1.00
18268;DHT22;9260;49.998;19.880;2024-03-25T02:54:05;1.00;1.00
18268;DHT22;9260;49.998;19.880;2024-03-25T03:04:07;1.30;1.00
18268;DHT22;9260;49.998;19.880;2024-03-25T03:14:11;0.70;1.00
18268;DHT22;9260;49.998;19.880;2024-03-25T03:24:13;0.00;1.00
18268;DHT22;9260;49.998;19.880;2024-03-25T03:34:16;-0.50;1.00
18268;DHT22;9260;49.998;19.880;2024-03-25T03:44:19;-0.40;1.00
18268;DHT22;9260;49.998;19.880;2024-03-25T03:54:22;-0.90;1.00
18268;DHT22;9260;49.998;19.880;2024-03-25T04:04:24;-0.60;1.00
18268;DHT22;9260;49.998;19.880;2024-03-25T04:14:28;-0.50;1.00
18268;DHT22;9260;49.998;19.880;2024-03-25T04:24:31;-1.20;1.00
18268;DHT22;9260;49.998;19.880;2024-03-25T04:34:36;-1.30;1.00
18268;DHT22;9260;49.998;19.880;2024-03-25T04:44:38;-1.80;1.00
18268;DHT22;9260;49.998;19.880;2024-03-25T04:54:41;-1.30;1.00
18268;DHT22;9260;49.998;19.880;2024-03-25T05:04:42;-1.50;1.00
18268;DHT22;9260;49.998;19.880;2024-03-25T05:14:44;0.00;1.00
18268;DHT22;9260;49.998;19.880;2024-03-25T05:24:47;0.20;1.00
18268;DHT22;9260;49.998;19.880;2024-03-25T05:34:51;3.60;1.00
18268;DHT22;9260;49.998;19.880;2024-03-25T05:44:52;2.80;1.00
18268;DHT22;9260;49.998;19.880;2024-03-25T05:54:54;2.60;1.00
18268;DHT22;9260;49.998;19.880;2024-03-25T06:04:56;3.30;1.00
18268;DHT22;9260;49.998;19.880;2024-03-25T06:14:58;4.20;1.00
18268;DHT22;9260;49.998;19.880;2024-03-25T06:24:59;4.30;1.00
18268;DHT22;9260;49.998;19.880;2024-03-25T06:35:02;3.90;1.00
18268;DHT22;9260;49.998;19.880;2024-03-25T06:45:04;3.90;1.00
18268;DHT22;9260;49.998;19.880;2024-03-25T06:55:07;3.70;1.00
18268;DHT22;9260;49.998;19.880;2024-03-25T07:05:09;4.20;1.00
18268;DHT22;9260;49.998;19.880;2024-03-25T07:15:12;4.70;1.00
18268;DHT22;9260;49.998;19.880;2024-03-25T07:25:13;4.70;1.00
18268;DHT22;9260;49.998;19.880;2024-03-25T07:35:15;4.80;1.00
18268;DHT22;9260;49.998;19.880;2024-03-25T07:45:19;5.30;1.00
18268;DHT22;9260;49.998;19.880;2024-03-25T07:55:22;5.40;1.00
18268;DHT22;9260;49.998;19.880;2024-03-25T08:05:23;5.90;1.00
18268;DHT22;9260;49.998;19.880;2024-03-25T08:15:26;6.80;1.00
18268;DHT22;9260;49.998;19.880;2024-03-25T08:25:27;6.90;1.00
18268;DHT22;9260;49.998;19.880;2024-03-25T08:35:29;7.40;1.00
18268;DHT22;9260;49.998;19.880;2024-03-25T08:45:31;7.20;1.00
18268;DHT22;9260;49.998;19.880;2024-03-25T08:55:33;7.90;1.00
18268;DHT22;9260;49.998;19.880;2024-03-25T09:05:34;7.00;1.00
18268;DHT22;9260;49.998;19.880;2024-03-25T09:15:37;5.80;1.00
18268;DHT22;9260;49.998;19.880;2024-03-25T09:25:38;5.90;1.00
18268;DHT22;9260;49.998;19.880;2024-03-25T09:35:41;5.90;1.00
18268;DHT22;9260;49.998;19.880;2024-03-25T09:45:42;5.90;1.00
18268;DHT22;9260;49.998;19.880;2024-03-25T09:55:47;5.50;1.00
18268;DHT22;9260;49.998;19.880;2024-03-25T10:05:48;6.70;1.00
18268;DHT22;9260;49.998;19.880;2024-03-25T10:15:50;11.60;1.00
18268;DHT22;9260;49.998;19.880;2024-03-25T10:25:52;22.50;1.00
18268;DHT22;9260;49.998;19.880;2024-03-25T10:35:54;30.10;1.00
18268;DHT22;9260;49.998;19.880;2024-03-25T10:45:57;22.70;1.00
18268;DHT22;9260;49.998;19.880;2024-03-25T10:56:00;13.30;1.00
18268;DHT22;9260;49.998;19.880;2024-03-25T11:06:02;11.00;1.00
18268;DHT22;9260;49.998;19.880;2024-03-25T11:16:05;7.90;1.00
18268;DHT22;9260;49.998;19.880;2024-03-25T11:26:16;7.90;1.00
18268;DHT22;9260;49.998;19.880;2024-03-25T11:36:20;6.30;1.00
18268;DHT22;9260;49.998;19.880;2024-03-25T11:46:24;4.70;1.00
18268;DHT22;9260;49.998;19.880;2024-03-25T11:56:26;4.20;1.00
18268;DHT22;9260;49.998;19.880;2024-03-25T12:06:28;5.00;1.00
18268;DHT22;9260;49.998;19.880;2024-03-25T12:16:30;10.70;1.00
18268;DHT22;9260;49.998;19.880;2024-03-25T12:26:32;26.50;1.00
18268;DHT22;9260;49.998;19.880;2024-03-25T12:36:36;26.80;1.00
18268;DHT22;9260;49.998;19.880;2024-03-25T12:46:37;15.70;1.00
18268;DHT22;9260;49.998;19.880;2024-03-25T12:56:40;10.40;1.00
18268;DHT22;9260;49.998;19.880;2024-03-25T13:06:42;7.60;1.00
18268;DHT22;9260;49.998;19.880;2024-03-25T13:16:44;11.20;1.00
18268;DHT22;9260;49.998;19.880;2024-03-25T13:26:45;24.20;1.00
18268;DHT22;9260;49.998;19.880;2024-03-25T13:36:48;29.10;1.00
18268;DHT22;9260;49.998;19.880;2024-03-25T13:46:49;29.70;1.00
18268;DHT22;9260;49.998;19.880;2024-03-25T13:56:52;24.50;1.00
18268;DHT22;9260;49.998;19.880;2024-03-25T14:06:53;13.60;1.00
18268;DHT22;9260;49.998;19.880;2024-03-25T14:16:56;14.20;1.00
18268;DHT22;9260;49.998;19.880;2024-03-25T14:26:57;14.60;1.00
18268;DHT22;9260;49.998;19.880;2024-03-25T14:37:00;14.80;1.00
18268;DHT22;9260;49.998;19.880;2024-03-25T14:47:02;16.30;1.00
18268;DHT22;9260;49.998;19.880;2024-03-25T14:57:04;11.30;1.00
18268;DHT22;9260;49.998;19.880;2024-03-25T15:07:06;9.60;1.00
18268;DHT22;9260;49.998;19.880;2024-03-25T15:17:08;8.30;1.00
18268;DHT22;9260;49.998;19.880;2024-03-25T15:27:10;8.40;1.00
18268;DHT22;9260;49.998;19.880;2024-03-25T15:37:12;8.40;1.00
18268;DHT22;9260;49.998;19.880;2024-03-25T15:47:13;7.60;1.00
18268;DHT22;9260;49.998;19.880;2024-03-25T15:57:16;7.00;1.00
18268;DHT22;9260;49.998;19.880;2024-03-25T16:07:17;6.50;1.00
18268;DHT22;9260;49.998;19.880;2024-03-25T16:17:20;6.00;1.00
18268;DHT22;9260;49.998;19.880;2024-03-25T16:27:21;6.20;1.00
18268;DHT22;9260;49.998;19.880;2024-03-25T16:37:24;5.60;1.00
18268;DHT22;9260;49.998;19.880;2024-03-25T16:47:25;5.30;1.00
18268;DHT22;9260;49.998;19.880;2024-03-25T16:57:28;5.00;1.00
18268;DHT22;9260;49.998;19.880;2024-03-25T17:07:29;4.80;1.00
18268;DHT22;9260;49.998;19.880;2024-03-25T17:17:32;4.40;1.00
18268;DHT22;9260;49.998;19.880;2024-03-25T17:27:34;4.40;1.00
18268;DHT22;9260;49.998;19.880;2024-03-25T17:37:36;3.70;1.00
18268;DHT22;9260;49.998;19.880;2024-03-25T17:47:38;4.20;1.00
18268;DHT22;9260;49.998;19.880;2024-03-25T17:57:40;3.80;1.00
18268;DHT22;9260;49.998;19.880;2024-03-25T18:07:42;3.80;1.00
18268;DHT22;9260;49.998;19.880;2024-03-25T18:17:44;2.90;1.00
18268;DHT22;9260;49.998;19.880;2024-03-25T18:27:45;2.30;1.00
18268;DHT22;9260;49.998;19.880;2024-03-25T18:37:48;2.10;1.00
18268;DHT22;9260;49.998;19.880;2024-03-25T18:47:49;2.20;1.00
18268;DHT22;9260;49.998;19.880;2024-03-25T18:57:52;2.10;1.00
18268;DHT22;9260;49.998;19.880;2024-03-25T19:07:53;1.10;1.00
18268;DHT22;9260;49.998;19.880;2024-03-25T19:17:56;0.60;1.00
18268;DHT22;9260;49.998;19.880;2024-03-25T19:27:57;0.20;1.00
18268;DHT22;9260;49.998;19.880;2024-03-25T19:38:00;-0.10;1.00
18268;DHT22;9260;49.998;19.880;2024-03-25T19:48:02;-0.50;1.00
18268;DHT22;9260;49.998;19.880;2024-03-25T19:58:05;-0.40;1.00
18268;DHT22;9260;49.998;19.880;2024-03-25T20:08:06;-0.80;1.00
18268;DHT22;9260;49.998;19.880;2024-03-25T20:18:09;-0.90;1.00
18268;DHT22;9260;49.998;19.880;2024-03-25T20:28:11;-0.90;1.00
18268;DHT22;9260;49.998;19.880;2024-03-25T20:38:17;-1.20;1.00
18268;DHT22;9260;49.998;19.880;2024-03-25T20:48:19;-1.20;1.00
18268;DHT22;9260;49.998;19.880;2024-03-25T20:58:25;-1.30;1.00
18268;DHT22;9260;49.998;19.880;2024-03-25T21:08:26;-1.30;1.00
18268;DHT22;9260;49.998;19.880;2024-03-25T21:18:29;-1.20;1.00
18268;DHT22;9260;49.998;19.880;2024-03-25T21:28:30;-1.00;1.00
18268;DHT22;9260;49.998;19.880;2024-03-25T21:38:32;-0.70;1.00
18268;DHT22;9260;49.998;19.880;2024-03-25T21:48:34;-0.80;1.00
18268;DHT22;9260;49.998;19.880;2024-03-25T21:58:36;-0.80;1.00
18268;DHT22;9260;49.998;19.880;2024-03-25T22:08:37;-1.40;1.00
18268;DHT22;9260;49.998;19.880;2024-03-25T22:18:40;-1.70;1.00
18268;DHT22;9260;49.998;19.880;2024-03-25T22:28:41;-1.70;1.00
18268;DHT22;9260;49.998;19.880;2024-03-25T22:38:44;-1.60;1.00
18268;DHT22;9260;49.998;19.880;2024-03-25T22:48:45;-1.70;1.00
18268;DHT22;9260;49.998;19.880;2024-03-25T22:58:48;-1.90;1.00
18268;DHT22;9260;49.998;19.880;2024-03-25T23:08:49;-0.60;1.00
18268;DHT22;9260;49.998;19.880;2024-03-25T23:18:51;-1.50;1.00
18268;DHT22;9260;49.998;19.880;2024-03-25T23:28:53;-0.90;1.00
18268;DHT22;9260;49.998;19.880;2024-03-25T23:38:55;-1.00;1.00
18268;DHT22;9260;49.998;19.880;2024-03-25T23:48:56;-1.10;1.00
18268;DHT22;9260;49.998;19.880;2024-03-25T23:58:59;-1.70;1.00
